Rusk, Wisconsin
Current Conditions -  °F | °C
As of 8:15 AM on Monday 20 Oct 2014 (Local Time) from KLUM Reporting Station
Clear Clear  
Wind Chill: 43°   Ceiling: Unl
Heat Index: 46°   Visibility: 10mi
Dew Point: 42°   Wind: 5mph
Humidity: 87%   Direction: 260°W
Pressure: 29.94"   Gusts: NA
Location:  44.857°N, 92.0071°W
Report Text: KLUM 201315Z AUTO 26004KT 10SM CLR 08/06 A2994 RMK AO2 T00760055
Loading
Personal Weather Stations






























Interactive Weather Map
Tropical Storm Tracking
New forecast layout! Learn more

10-Day Weather Forecast

Advertisements
Track Severe Weather on mobile